Time;durP1;ratioP1;P1;durP2;ratioP2;P2;SDS_P1;SDS_P2;PMS_P1;PMS_P2;Temp;Humidity;BMP_temperature;BMP_pressure;BME280_temperature;BME280_humidity;BME280_pressure;Samples;Min_cycle;Max_cycle;Signal;HPM_P1;HPM_P2
2022/11/28 00:00:45;;;;;;;1999.90;999.90;;;6.10;99.90;;;;;;5048737;28;20463;-68
2022/11/28 00:03:13;;;;;;;1999.90;999.90;;;6.10;99.90;;;;;;5048385;28;20443;-67
2022/11/28 00:05:39;;;;;;;1999.90;999.90;;;6.10;99.90;;;;;;5050105;28;20984;-68
2022/11/28 00:08:06;;;;;;;1999.90;999.90;;;6.10;99.90;;;;;;5050402;28;21141;-68
2022/11/28 00:10:33;;;;;;;1999.90;999.90;;;6.10;99.90;;;;;;5050055;28;20467;-68
2022/11/28 00:12:59;;;;;;;1999.90;999.90;;;6.20;99.90;;;;;;5050336;28;20439;-68
2022/11/28 00:15:26;;;;;;;1999.90;999.90;;;6.10;99.90;;;;;;5050152;28;20484;-68
2022/11/28 00:17:53;;;;;;;1999.90;999.90;;;6.10;99.90;;;;;;5049926;28;20805;-68
2022/11/28 00:20:21;;;;;;;1999.90;999.90;;;6.00;99.90;;;;;;5049902;28;20468;-68
2022/11/28 00:22:48;;;;;;;1999.90;999.90;;;6.00;99.90;;;;;;5050379;28;20450;-68
2022/11/28 00:25:15;;;;;;;1999.90;999.90;;;6.00;99.90;;;;;;5050366;28;20451;-68
2022/11/28 00:27:41;;;;;;;1999.90;999.90;;;6.10;99.90;;;;;;5049957;28;20471;-68
2022/11/28 00:30:09;;;;;;;1999.90;999.90;;;6.10;99.90;;;;;;5049563;28;20989;-68
2022/11/28 00:32:36;;;;;;;1999.90;999.90;;;6.00;99.90;;;;;;5049774;28;20448;-67
2022/11/28 00:35:03;;;;;;;1999.90;999.90;;;5.90;99.90;;;;;;5050057;28;20459;-68
2022/11/28 00:37:31;;;;;;;1999.90;999.90;;;5.90;99.90;;;;;;5049979;28;20853;-67
2022/11/28 00:39:58;;;;;;;1999.90;999.90;;;5.90;99.90;;;;;;5049579;28;20863;-68
2022/11/28 00:42:26;;;;;;;1999.90;999.90;;;5.90;99.90;;;;;;5049763;28;20531;-67
2022/11/28 00:44:53;;;;;;;1999.90;999.90;;;5.90;99.90;;;;;;5049737;28;20452;-68
2022/11/28 00:47:20;;;;;;;1999.90;999.90;;;5.90;99.90;;;;;;5049689;28;20444;-68
2022/11/28 00:49:46;;;;;;;1999.90;999.90;;;5.90;99.90;;;;;;5049415;28;21333;-68
2022/11/28 00:52:13;;;;;;;1999.90;999.90;;;5.90;99.90;;;;;;5049657;28;20448;-68
2022/11/28 00:54:41;;;;;;;1999.90;999.90;;;5.90;99.90;;;;;;5049744;28;20451;-68
2022/11/28 00:57:08;;;;;;;1999.90;999.90;;;5.90;99.90;;;;;;5049491;28;20480;-68
2022/11/28 00:59:35;;;;;;;1999.90;999.90;;;5.80;99.90;;;;;;5049018;28;20477;-68
2022/11/28 01:02:01;;;;;;;1999.90;999.90;;;5.90;99.90;;;;;;5049589;28;20448;-68
2022/11/28 01:04:28;;;;;;;1999.90;999.90;;;5.90;99.90;;;;;;5049615;28;20440;-68
2022/11/28 01:06:56;;;;;;;1999.90;999.90;;;5.90;99.90;;;;;;5049679;28;20444;-67
2022/11/28 01:09:23;;;;;;;1999.90;999.90;;;5.90;99.90;;;;;;5048945;28;20848;-68
2022/11/28 01:11:53;;;;;;;1999.90;999.90;;;5.90;99.90;;;;;;5049496;28;20570;-68
2022/11/28 01:14:22;;;;;;;1999.90;999.90;;;5.90;99.90;;;;;;5049466;28;20459;-68
2022/11/28 01:16:49;;;;;;;1999.90;999.90;;;5.90;99.90;;;;;;5049261;28;21005;-67
2022/11/28 01:19:16;;;;;;;1999.90;999.90;;;5.90;99.90;;;;;;5049115;28;20444;-67
2022/11/28 01:21:44;;;;;;;1999.90;999.90;;;5.80;99.90;;;;;;5050062;28;20818;-67
2022/11/28 01:24:11;;;;;;;1999.90;999.90;;;6.00;99.90;;;;;;5053516;28;20444;-68
2022/11/28 01:26:39;;;;;;;1999.90;999.90;;;6.00;99.90;;;;;;5053027;28;20451;-68
2022/11/28 01:29:08;;;;;;;1999.90;999.90;;;6.00;99.90;;;;;;5052897;28;20513;-68
2022/11/28 01:31:34;;;;;;;1999.90;999.90;;;6.00;99.90;;;;;;5053430;28;20474;-68
2022/11/28 01:34:01;;;;;;;1999.90;999.90;;;6.00;99.90;;;;;;5053359;28;20440;-68
2022/11/28 01:36:29;;;;;;;1999.90;999.90;;;6.00;99.90;;;;;;5053232;28;20479;-68
2022/11/28 01:38:56;;;;;;;1999.90;999.90;;;6.00;99.90;;;;;;5052742;28;20454;-67
2022/11/28 01:41:25;;;;;;;1999.90;999.90;;;5.90;99.90;;;;;;5053055;28;20985;-68
2022/11/28 01:44:06;;;;;;;1999.90;999.90;;;5.90;99.90;;;;;;5053448;28;20517;-68
2022/11/28 01:46:35;;;;;;;1999.90;999.90;;;5.90;99.90;;;;;;5053469;28;20445;-68
2022/11/28 01:49:07;;;;;;;1999.90;999.90;;;6.00;99.90;;;;;;5053082;28;20470;-68
2022/11/28 01:51:35;;;;;;;1999.90;999.90;;;6.00;99.90;;;;;;5053276;28;20464;-68
2022/11/28 01:54:03;;;;;;;1999.90;999.90;;;6.00;99.90;;;;;;5053453;28;20448;-68
2022/11/28 01:56:38;;;;;;;1999.90;999.90;;;5.90;99.90;;;;;;5052992;28;20486;-68
2022/11/28 01:59:09;;;;;;;1999.90;999.90;;;6.00;99.90;;;;;;5052210;28;20450;-67
2022/11/28 02:01:38;;;;;;;1999.90;999.90;;;6.00;99.90;;;;;;5052819;28;20463;-68
2022/11/28 02:04:06;;;;;;;1999.90;999.90;;;5.90;99.90;;;;;;5052485;28;20456;-67
2022/11/28 02:06:33;;;;;;;1999.90;999.90;;;5.90;99.90;;;;;;5052826;28;20447;-67
2022/11/28 02:08:59;;;;;;;1999.90;999.90;;;5.90;99.90;;;;;;5052480;28;20446;-68
2022/11/28 02:11:59;;;;;;;1999.90;999.90;;;5.80;99.90;;;;;;5052393;28;20944;-68
2022/11/28 02:14:44;;;;;;;1999.90;999.90;;;5.90;99.90;;;;;;5049622;28;20969;-67
2022/11/28 02:17:20;;;;;;;1999.90;999.90;;;5.90;99.90;;;;;;5052571;28;20483;-68
2022/11/28 02:20:29;;;;;;;1999.90;999.90;;;5.80;99.90;;;;;;5052077;28;20480;-68
2022/11/28 02:23:04;;;;;;;1999.90;999.90;;;5.80;99.90;;;;;;4989835;28;20448;-68
2022/11/28 02:25:55;;;;;;;1999.90;999.90;;;5.80;99.90;;;;;;5052021;28;20937;-68
2022/11/28 02:28:52;;;;;;;1999.90;999.90;;;5.70;99.90;;;;;;5052208;28;20467;-67
2022/11/28 02:31:33;;;;;;;1999.90;999.90;;;5.80;99.90;;;;;;5052239;28;20464;-68
2022/11/28 02:34:08;;;;;;;1999.90;999.90;;;5.80;99.90;;;;;;5050931;28;20522;-67
2022/11/28 02:36:40;;;;;;;1999.90;999.90;;;5.80;99.90;;;;;;5052009;28;20483;-68
2022/11/28 02:39:14;;;;;;;1999.90;999.90;;;5.90;99.90;;;;;;5051681;28;20451;-68
2022/11/28 02:41:47;;;;;;;1999.90;999.90;;;5.90;99.90;;;;;;5051820;28;20448;-68
2022/11/28 02:44:17;;;;;;;1999.90;999.90;;;5.90;99.90;;;;;;5052046;28;20448;-67
2022/11/28 02:46:52;;;;;;;1999.90;999.90;;;5.90;99.90;;;;;;5052041;28;20447;-67
2022/11/28 02:49:26;;;;;;;1999.90;999.90;;;5.90;99.90;;;;;;5051348;28;20440;-68
2022/11/28 02:51:58;;;;;;;1999.90;999.90;;;5.90;99.90;;;;;;5051832;28;20447;-68
2022/11/28 02:54:26;;;;;;;1999.90;999.90;;;5.90;99.90;;;;;;5051468;28;20444;-67
2022/11/28 02:56:54;;;;;;;1999.90;999.90;;;5.90;99.90;;;;;;5051923;28;20490;-67
2022/11/28 02:59:33;;;;;;;1999.90;999.90;;;5.90;99.90;;;;;;5051258;28;20452;-68
2022/11/28 03:02:01;;;;;;;1999.90;999.90;;;5.90;99.90;;;;;;5051687;28;20527;-67
2022/11/28 03:04:41;;;;;;;1999.90;999.90;;;5.90;99.90;;;;;;5051289;28;20448;-67
2022/11/28 03:07:19;;;;;;;1999.90;999.90;;;5.90;99.90;;;;;;5051782;28;20459;-67
2022/11/28 03:10:03;;;;;;;1999.90;999.90;;;5.90;99.90;;;;;;5050920;28;20880;-67
2022/11/28 03:12:38;;;;;;;1999.90;999.90;;;5.80;99.90;;;;;;5051416;28;20440;-68
2022/11/28 03:15:07;;;;;;;1999.90;999.90;;;5.80;99.90;;;;;;5051089;28;20463;-67
2022/11/28 03:17:43;;;;;;;1999.90;999.90;;;5.70;99.90;;;;;;5051498;28;20491;-68
2022/11/28 03:20:19;;;;;;;1999.90;999.90;;;5.80;99.90;;;;;;5051079;28;20494;-68
2022/11/28 03:23:01;;;;;;;1999.90;999.90;;;5.80;99.90;;;;;;5051241;28;20444;-68
2022/11/28 03:25:34;;;;;;;1999.90;999.90;;;5.80;99.90;;;;;;5051132;28;20448;-67
2022/11/28 03:28:05;;;;;;;1999.90;999.90;;;5.90;99.90;;;;;;5051282;28;20463;-68
2022/11/28 03:30:39;;;;;;;1999.90;999.90;;;5.90;99.90;;;;;;5051121;28;20839;-68
2022/11/28 03:33:07;;;;;;;1999.90;999.90;;;5.90;99.90;;;;;;5051066;28;20447;-67
2022/11/28 03:35:41;;;;;;;1999.90;999.90;;;5.80;99.90;;;;;;5050674;28;20448;-67
2022/11/28 03:38:16;;;;;;;1999.90;999.90;;;5.90;99.90;;;;;;5050578;28;20997;-68
2022/11/28 03:40:49;;;;;;;1999.90;999.90;;;5.90;99.90;;;;;;5050777;28;20463;-68
2022/11/28 03:43:19;;;;;;;1999.90;999.90;;;5.80;99.90;;;;;;5050910;28;20448;-68
2022/11/28 03:45:49;;;;;;;1999.90;999.90;;;5.80;99.90;;;;;;5050552;28;20443;-68
2022/11/28 03:48:21;;;;;;;1999.90;999.90;;;5.70;99.90;;;;;;5050111;28;20447;-68
2022/11/28 03:50:55;;;;;;;1999.90;999.90;;;5.80;99.90;;;;;;5050815;28;20471;-68
2022/11/28 03:53:27;;;;;;;1999.90;999.90;;;5.80;99.90;;;;;;5050275;28;20453;-68
2022/11/28 03:56:00;;;;;;;1999.90;999.90;;;5.80;99.90;;;;;;5050704;28;20542;-68
2022/11/28 03:58:32;;;;;;;1999.90;999.90;;;5.80;99.90;;;;;;5050152;28;21079;-68
2022/11/28 04:01:06;;;;;;;1999.90;999.90;;;5.70;99.90;;;;;;5050359;28;20468;-68
2022/11/28 04:03:40;;;;;;;1999.90;999.90;;;5.80;99.90;;;;;;5050696;28;20530;-68
2022/11/28 04:06:16;;;;;;;1999.90;999.90;;;5.80;99.90;;;;;;5050397;28;20847;-68
2022/11/28 04:08:47;;;;;;;1999.90;999.90;;;5.80;99.90;;;;;;5050105;28;20440;-68
2022/11/28 04:11:19;;;;;;;1999.90;999.90;;;5.70;99.90;;;;;;5050254;28;20464;-67
2022/11/28 04:13:51;;;;;;;1999.90;999.90;;;5.60;99.90;;;;;;5050551;28;20547;-68
2022/11/28 04:16:22;;;;;;;1999.90;999.90;;;5.60;99.90;;;;;;5050494;28;20448;-68
2022/11/28 04:18:55;;;;;;;1999.90;999.90;;;5.70;99.90;;;;;;5050317;28;20444;-68
2022/11/28 04:21:30;;;;;;;1999.90;999.90;;;5.70;99.90;;;;;;5050155;28;20468;-67
2022/11/28 04:24:02;;;;;;;1999.90;999.90;;;5.70;99.90;;;;;;5050696;28;20455;-68
2022/11/28 04:26:32;;;;;;;1999.90;999.90;;;5.60;99.90;;;;;;5050322;28;20448;-67
2022/11/28 04:29:02;;;;;;;1999.90;999.90;;;5.60;99.90;;;;;;5050193;28;20447;-68
2022/11/28 04:31:30;;;;;;;1999.90;999.90;;;5.60;99.90;;;;;;5050708;28;20464;-68
2022/11/28 04:34:01;;;;;;;1999.90;999.90;;;5.60;99.90;;;;;;5050078;28;20443;-68
2022/11/28 04:36:30;;;;;;;1999.90;999.90;;;5.60;99.90;;;;;;5050315;28;20455;-67
2022/11/28 04:38:57;;;;;;;1999.90;999.90;;;5.60;99.90;;;;;;5049419;28;20448;-67
2022/11/28 04:41:29;;;;;;;1999.90;999.90;;;5.70;99.90;;;;;;5049982;28;20464;-67
2022/11/28 04:44:02;;;;;;;1999.90;999.90;;;5.60;99.90;;;;;;5049761;28;20798;-68
2022/11/28 04:46:37;;;;;;;1999.90;999.90;;;5.60;99.90;;;;;;5049836;28;20446;-67
2022/11/28 04:49:04;;;;;;;1999.90;999.90;;;5.70;99.90;;;;;;5049312;28;20844;-68
2022/11/28 04:51:39;;;;;;;1999.90;999.90;;;5.70;99.90;;;;;;5049746;28;20468;-67
2022/11/28 04:54:12;;;;;;;1999.90;999.90;;;5.60;99.90;;;;;;5049498;28;20455;-68
2022/11/28 04:56:45;;;;;;;1999.90;999.90;;;5.60;99.90;;;;;;5048957;28;20480;-68
2022/11/28 04:59:14;;;;;;;1999.90;999.90;;;5.50;99.90;;;;;;5049461;28;20432;-68
2022/11/28 05:01:44;;;;;;;1999.90;999.90;;;5.50;99.90;;;;;;5049553;28;20953;-68
2022/11/28 05:04:12;;;;;;;1999.90;999.90;;;5.50;99.90;;;;;;5049641;28;20455;-67
2022/11/28 05:06:40;;;;;;;1999.90;999.90;;;5.50;99.90;;;;;;5049331;28;20454;-68
2022/11/28 05:09:07;;;;;;;1999.90;999.90;;;5.40;99.90;;;;;;5049236;28;21028;-68
2022/11/28 05:11:34;;;;;;;1999.90;999.90;;;5.40;99.90;;;;;;5049244;28;20464;-67
2022/11/28 05:14:00;;;;;;;1999.90;999.90;;;5.50;99.90;;;;;;5049654;28;20444;-67
2022/11/28 05:16:27;;;;;;;1999.90;999.90;;;5.50;99.90;;;;;;5049315;28;20469;-68
2022/11/28 05:18:54;;;;;;;1999.90;999.90;;;5.50;99.90;;;;;;5049294;28;20451;-68
2022/11/28 05:21:21;;;;;;;1999.90;999.90;;;5.50;99.90;;;;;;5048863;28;20985;-67
2022/11/28 05:23:49;;;;;;;1999.90;999.90;;;5.40;99.90;;;;;;5049371;28;20448;-68
2022/11/28 05:26:18;;;;;;;1999.90;999.90;;;5.40;99.90;;;;;;5049014;28;20452;-67
2022/11/28 05:28:45;;;;;;;1999.90;999.90;;;5.40;99.90;;;;;;5049107;28;20452;-68
2022/11/28 05:31:13;;;;;;;1999.90;999.90;;;5.30;99.90;;;;;;5049608;28;20474;-67
2022/11/28 05:33:40;;;;;;;1999.90;999.90;;;5.30;99.90;;;;;;5049542;28;20448;-69
2022/11/28 05:36:09;;;;;;;1999.90;999.90;;;5.40;99.90;;;;;;5049183;28;20459;-68
2022/11/28 05:38:36;;;;;;;1999.90;999.90;;;5.40;99.90;;;;;;5048570;28;21005;-67
2022/11/28 05:41:05;;;;;;;1999.90;999.90;;;5.30;99.90;;;;;;5049045;28;21001;-68
2022/11/28 05:43:32;;;;;;;1999.90;999.90;;;5.40;99.90;;;;;;5048600;28;20832;-67
2022/11/28 05:45:59;;;;;;;1999.90;999.90;;;5.40;99.90;;;;;;5047788;28;20452;-67
2022/11/28 05:48:25;;;;;;;1999.90;999.90;;;5.50;99.90;;;;;;5048317;28;20444;-66
2022/11/28 05:50:52;;;;;;;1999.90;999.90;;;5.50;99.90;;;;;;5048632;28;20467;-68
2022/11/28 05:53:19;;;;;;;1999.90;999.90;;;5.50;99.90;;;;;;5048793;28;20444;-68
2022/11/28 05:55:47;;;;;;;1999.90;999.90;;;5.50;99.90;;;;;;5038334;28;20511;-67
2022/11/28 05:58:15;;;;;;;1999.90;999.90;;;5.50;99.90;;;;;;5048445;28;20476;-67
2022/11/28 06:00:41;;;;;;;1999.90;999.90;;;5.50;99.90;;;;;;5047937;28;20468;-67
2022/11/28 06:03:08;;;;;;;1999.90;999.90;;;5.60;99.90;;;;;;5031770;28;20456;-66
2022/11/28 06:05:39;;;;;;;1999.90;999.90;;;5.50;99.90;;;;;;5046493;28;20448;-67
2022/11/28 06:08:06;;;;;;;1999.90;999.90;;;5.50;99.90;;;;;;5047027;28;20444;-67
2022/11/28 06:10:33;;;;;;;1999.90;999.90;;;5.50;99.90;;;;;;5047576;28;20472;-67
2022/11/28 06:13:01;;;;;;;1999.90;999.90;;;5.50;99.90;;;;;;5045508;28;20452;-67
2022/11/28 06:15:30;;;;;;;1999.90;999.90;;;5.50;99.90;;;;;;5052042;28;20452;-67
2022/11/28 06:17:56;;;;;;;1999.90;999.90;;;5.50;99.90;;;;;;5040587;28;20476;-67
2022/11/28 06:20:23;;;;;;;1999.90;999.90;;;5.50;99.90;;;;;;5030843;28;20473;-67
2022/11/28 06:22:50;;;;;;;1999.90;999.90;;;5.50;99.90;;;;;;5030332;28;21181;-67
2022/11/28 06:25:17;;;;;;;1999.90;999.90;;;5.40;99.90;;;;;;5030040;28;20440;-67
2022/11/28 06:27:44;;;;;;;1999.90;999.90;;;5.40;99.90;;;;;;5032007;28;20445;-68
2022/11/28 06:30:11;;;;;;;1999.90;999.90;;;5.30;99.90;;;;;;5031721;28;20471;-68
2022/11/28 06:32:39;;;;;;;1999.90;999.90;;;5.40;99.90;;;;;;5032156;28;20444;-67
2022/11/28 06:35:06;;;;;;;1999.90;999.90;;;5.40;99.90;;;;;;5031993;28;20464;-67
2022/11/28 06:37:33;;;;;;;1999.90;999.90;;;5.40;99.90;;;;;;5032330;28;20481;-67
2022/11/28 06:40:00;;;;;;;1999.90;999.90;;;5.30;99.90;;;;;;5031817;28;20468;-67
2022/11/28 06:42:27;;;;;;;1999.90;999.90;;;5.30;99.90;;;;;;5031570;28;21291;-68
2022/11/28 06:44:53;;;;;;;1999.90;999.90;;;5.30;99.90;;;;;;5031879;28;20449;-67
2022/11/28 06:47:21;;;;;;;1999.90;999.90;;;5.40;99.90;;;;;;5031965;28;20445;-68
2022/11/28 06:49:49;;;;;;;1999.90;999.90;;;5.40;99.90;;;;;;5032047;28;20479;-67
2022/11/28 06:52:16;;;;;;;1999.90;999.90;;;5.40;99.90;;;;;;5052054;28;20459;-67
2022/11/28 06:54:43;;;;;;;1999.90;999.90;;;5.40;99.90;;;;;;5051906;28;20458;-68
2022/11/28 06:57:10;;;;;;;1999.90;999.90;;;5.40;99.90;;;;;;5051297;28;20498;-65
2022/11/28 06:59:36;;;;;;;1999.90;999.90;;;5.30;99.90;;;;;;5051334;28;20470;-67
2022/11/28 07:02:03;;;;;;;1999.90;999.90;;;5.30;99.90;;;;;;5040044;28;20465;-67
2022/11/28 07:04:30;;;;;;;1999.90;999.90;;;5.30;99.90;;;;;;5044201;28;20837;-67
2022/11/28 07:06:58;;;;;;;1999.90;999.90;;;5.30;99.90;;;;;;5030986;28;20441;-66
2022/11/28 07:09:25;;;;;;;1999.90;999.90;;;5.40;99.90;;;;;;5030211;28;20445;-67
2022/11/28 07:11:52;;;;;;;1999.90;999.90;;;5.40;99.90;;;;;;5036209;28;21015;-68
2022/11/28 07:14:18;;;;;;;1999.90;999.90;;;5.40;99.90;;;;;;5047718;28;20930;-67
2022/11/28 07:16:46;;;;;;;1999.90;999.90;;;5.40;99.90;;;;;;5039599;28;21236;-67
2022/11/28 07:19:12;;;;;;;1999.90;999.90;;;5.40;99.90;;;;;;5032074;28;21001;-67
2022/11/28 07:21:40;;;;;;;1999.90;999.90;;;5.40;99.90;;;;;;5040076;28;20448;-67
2022/11/28 07:24:08;;;;;;;1999.90;999.90;;;5.30;99.90;;;;;;5028361;28;20448;-68
2022/11/28 07:26:36;;;;;;;1999.90;999.90;;;5.40;99.90;;;;;;5028350;28;20449;-67
2022/11/28 07:29:05;;;;;;;1999.90;999.90;;;5.50;99.90;;;;;;5044980;28;20448;-67
2022/11/28 07:31:32;;;;;;;1999.90;999.90;;;5.50;99.90;;;;;;5037277;28;20473;-67
2022/11/28 07:34:02;;;;;;;1999.90;999.90;;;5.60;99.90;;;;;;5048219;28;20447;-67
2022/11/28 07:36:29;;;;;;;1999.90;999.90;;;5.70;99.90;;;;;;5047965;28;20460;-66
2022/11/28 07:38:57;;;;;;;1999.90;999.90;;;5.50;99.90;;;;;;5048024;28;20494;-67
2022/11/28 07:41:26;;;;;;;1999.90;999.90;;;5.50;99.90;;;;;;5048238;28;20467;-68
2022/11/28 07:43:54;;;;;;;1999.90;999.90;;;5.50;99.90;;;;;;5044025;28;20457;-68
2022/11/28 07:46:21;;;;;;;1999.90;999.90;;;5.60;99.90;;;;;;5042597;28;20498;-67
2022/11/28 07:48:49;;;;;;;1999.90;999.90;;;5.60;99.90;;;;;;5027419;28;20445;-68
2022/11/28 07:51:18;;;;;;;1999.90;999.90;;;5.80;99.90;;;;;;5027873;28;20465;-66
2022/11/28 07:53:45;;;;;;;1999.90;999.90;;;5.80;99.90;;;;;;5027424;28;20872;-67
2022/11/28 07:56:14;;;;;;;1999.90;999.90;;;5.90;99.90;;;;;;5027941;28;20468;-67
2022/11/28 07:58:43;;;;;;;1999.90;999.90;;;6.00;99.90;;;;;;5027173;28;20519;-67
2022/11/28 08:01:11;;;;;;;1999.90;999.90;;;6.10;99.90;;;;;;5034273;28;20471;-67
2022/11/28 08:03:38;;;;;;;1999.90;999.90;;;6.20;99.90;;;;;;5046924;28;20890;-67
2022/11/28 08:06:06;;;;;;;1999.90;999.90;;;6.20;99.90;;;;;;5048162;28;20459;-67
2022/11/28 08:08:33;;;;;;;1999.90;999.90;;;6.20;99.90;;;;;;5047006;28;20447;-67
2022/11/28 08:11:02;;;;;;;1999.90;999.90;;;6.30;99.90;;;;;;5047726;28;20494;-66
2022/11/28 08:13:29;;;;;;;1999.90;999.90;;;6.40;99.90;;;;;;5047472;28;20444;-67
2022/11/28 08:15:57;;;;;;;1999.90;999.90;;;6.40;99.90;;;;;;5047705;28;21148;-66
2022/11/28 08:18:24;;;;;;;1999.90;999.90;;;6.50;99.90;;;;;;5048077;28;20471;-67
2022/11/28 08:20:51;;;;;;;1999.90;999.90;;;6.30;99.90;;;;;;5048103;28;20460;-67
2022/11/28 08:23:18;;;;;;;1999.90;999.90;;;6.40;99.90;;;;;;5048112;28;20448;-68
2022/11/28 08:25:44;;;;;;;1999.90;999.90;;;6.50;99.90;;;;;;5048191;28;20451;-68
2022/11/28 08:28:11;;;;;;;1999.90;999.90;;;6.60;99.90;;;;;;5047923;28;20450;-67
2022/11/28 08:30:38;;;;;;;1999.90;999.90;;;6.60;99.90;;;;;;5047843;28;20468;-68
2022/11/28 08:33:06;;;;;;;1999.90;999.90;;;6.70;99.90;;;;;;5047327;28;20455;-68
2022/11/28 08:35:33;;;;;;;1999.90;999.90;;;6.80;99.90;;;;;;5048372;28;20456;-67
2022/11/28 08:37:59;;;;;;;1999.90;999.90;;;6.80;99.90;;;;;;5048141;28;20479;-67
2022/11/28 08:40:26;;;;;;;1999.90;999.90;;;6.90;99.90;;;;;;5047946;28;20859;-68
2022/11/28 08:42:53;;;;;;;1999.90;999.90;;;7.00;99.90;;;;;;5048964;28;20518;-68
2022/11/28 08:45:20;;;;;;;1999.90;999.90;;;7.10;99.90;;;;;;5049668;28;20444;-68
2022/11/28 08:47:46;;;;;;;1999.90;999.90;;;7.10;99.90;;;;;;5048664;28;20447;-68
2022/11/28 08:50:14;;;;;;;1999.90;999.90;;;7.20;99.90;;;;;;5049316;28;20463;-67
2022/11/28 08:52:41;;;;;;;1999.90;999.90;;;7.30;99.90;;;;;;5042879;28;20463;-68
2022/11/28 08:55:09;;;;;;;1999.90;999.90;;;7.20;99.90;;;;;;5047321;28;20459;-69
2022/11/28 08:57:35;;;;;;;1999.90;999.90;;;7.20;99.90;;;;;;5031675;28;20460;-67
2022/11/28 09:00:05;;;;;;;1999.90;999.90;;;7.30;99.90;;;;;;5033591;28;20478;-68
2022/11/28 09:02:31;;;;;;;1999.90;999.90;;;7.40;99.90;;;;;;5040417;28;20456;-67
2022/11/28 09:04:58;;;;;;;1999.90;999.90;;;7.60;99.90;;;;;;5027492;28;20456;-67
2022/11/28 09:07:26;;;;;;;1999.90;999.90;;;7.60;99.90;;;;;;5030366;28;20440;-68
2022/11/28 09:09:53;;;;;;;1999.90;999.90;;;7.60;99.90;;;;;;5047261;28;20468;-68
2022/11/28 09:12:20;;;;;;;1999.90;999.90;;;7.50;99.90;;;;;;5047478;28;20450;-68
2022/11/28 09:14:46;;;;;;;1999.90;999.90;;;7.60;99.90;;;;;;5047431;28;20448;-68
2022/11/28 09:17:14;;;;;;;1999.90;999.90;;;7.40;99.90;;;;;;5047027;28;20452;-67
2022/11/28 09:19:41;;;;;;;1999.90;999.90;;;7.40;99.90;;;;;;5047266;28;20575;-68
2022/11/28 09:22:08;;;;;;;1999.90;999.90;;;7.50;99.90;;;;;;5047709;28;20462;-67
2022/11/28 09:24:36;;;;;;;1999.90;999.90;;;7.60;99.90;;;;;;5047270;28;20444;-67
2022/11/28 09:27:03;;;;;;;1999.90;999.90;;;7.80;99.90;;;;;;5047233;28;20454;-67
2022/11/28 09:29:30;;;;;;;1999.90;999.90;;;7.80;99.90;;;;;;5046933;28;20463;-68
2022/11/28 09:31:56;;;;;;;1999.90;999.90;;;8.00;99.90;;;;;;5047261;28;20805;-68
2022/11/28 09:34:23;;;;;;;1999.90;999.90;;;8.00;99.90;;;;;;5047068;28;20962;-67
2022/11/28 09:36:50;;;;;;;1999.90;999.90;;;8.10;99.90;;;;;;5047303;28;21008;-68
2022/11/28 09:39:17;;;;;;;1999.90;999.90;;;8.10;99.90;;;;;;5046509;28;20997;-68
2022/11/28 09:41:55;;;;;;;1999.90;999.90;;;8.20;99.90;;;;;;5047317;28;20452;-67
2022/11/28 09:44:26;;;;;;;1999.90;999.90;;;8.30;99.90;;;;;;5050142;28;20482;-68
2022/11/28 09:46:56;;;;;;;1999.90;999.90;;;8.40;99.90;;;;;;5051266;28;20448;-67
2022/11/28 09:49:30;;;;;;;1999.90;999.90;;;8.30;99.90;;;;;;5051134;28;20440;-67
2022/11/28 09:52:01;;;;;;;1999.90;999.90;;;8.40;99.90;;;;;;5050851;28;20436;-67
2022/11/28 09:54:37;;;;;;;1999.90;999.90;;;8.60;99.90;;;;;;5051347;28;20467;-67
2022/11/28 09:57:12;;;;;;;1999.90;999.90;;;8.70;99.90;;;;;;5050725;28;20456;-68
2022/11/28 09:59:40;;;;;;;1999.90;999.90;;;8.50;99.90;;;;;;5050591;28;20479;-67
2022/11/28 10:02:21;;;;;;;1999.90;999.90;;;8.40;99.90;;;;;;5050691;28;20961;-68
2022/11/28 10:04:53;;;;;;;1999.90;999.90;;;8.30;99.90;;;;;;5050823;28;20451;-68
2022/11/28 10:07:27;;;;;;;1999.90;999.90;;;8.30;99.90;;;;;;5050331;28;20448;-68
2022/11/28 10:10:02;;;;;;;1999.90;999.90;;;8.30;99.90;;;;;;5050488;28;20845;-68
2022/11/28 10:12:42;;;;;;;1999.90;999.90;;;8.20;99.90;;;;;;5050610;28;20454;-67
2022/11/28 10:15:21;;;;;;;1999.90;999.90;;;8.20;99.90;;;;;;5050444;28;20444;-68
2022/11/28 10:17:59;;;;;;;1999.90;999.90;;;8.10;99.90;;;;;;5050380;28;20455;-67
2022/11/28 10:20:28;;;;;;;1999.90;999.90;;;8.20;99.90;;;;;;5050157;28;20535;-67
2022/11/28 10:22:59;;;;;;;1999.90;999.90;;;8.40;99.90;;;;;;5050487;28;20455;-68
2022/11/28 10:25:30;;;;;;;1999.90;999.90;;;8.50;99.90;;;;;;5050110;28;20543;-68
2022/11/28 10:27:58;;;;;;;1999.90;999.90;;;8.60;99.90;;;;;;5050078;28;20447;-68
2022/11/28 10:30:28;;;;;;;1999.90;999.90;;;8.70;99.90;;;;;;5049417;28;20475;-67
2022/11/28 10:33:01;;;;;;;1999.90;999.90;;;8.80;99.90;;;;;;5050122;28;20823;-68
2022/11/28 10:35:35;;;;;;;1999.90;999.90;;;8.90;99.90;;;;;;5050016;28;20848;-67
2022/11/28 10:38:02;;;;;;;1999.90;999.90;;;9.00;99.90;;;;;;5049895;28;20440;-69
2022/11/28 10:40:37;;;;;;;1999.90;999.90;;;9.00;99.90;;;;;;5049517;28;20479;-67
2022/11/28 10:43:16;;;;;;;1999.90;999.90;;;9.20;99.90;;;;;;5049809;28;20452;-68
2022/11/28 10:45:52;;;;;;;1999.90;999.90;;;9.20;99.90;;;;;;5049684;28;20486;-68
2022/11/28 10:48:35;;;;;;;1999.90;999.90;;;9.30;99.90;;;;;;5049586;28;20451;-67
2022/11/28 10:51:10;;;;;;;1999.90;999.90;;;9.40;99.90;;;;;;5049626;28;20470;-67
2022/11/28 10:53:45;;;;;;;1999.90;999.90;;;9.60;99.90;;;;;;5050224;28;20444;-67
2022/11/28 10:56:21;;;;;;;1999.90;999.90;;;9.80;99.90;;;;;;5048884;28;20447;-67
2022/11/28 10:58:56;;;;;;;1999.90;999.90;;;10.00;99.90;;;;;;5049377;28;20513;-67
2022/11/28 11:01:25;;;;;;;1999.90;999.90;;;10.20;99.90;;;;;;5049280;28;20464;-67
2022/11/28 11:03:52;;;;;;;1999.90;999.90;;;10.20;99.90;;;;;;5049563;28;20448;-69
2022/11/28 11:06:19;;;;;;;1999.90;999.90;;;10.30;99.90;;;;;;5049003;28;20455;-66
2022/11/28 11:08:47;;;;;;;1999.90;999.90;;;10.30;99.90;;;;;;5048473;28;20456;-67
2022/11/28 11:11:24;;;;;;;1999.90;999.90;;;10.40;99.90;;;;;;5049260;28;20479;-69
2022/11/28 11:13:59;;;;;;;1999.90;999.90;;;10.30;99.90;;;;;;5049337;28;21017;-67
2022/11/28 11:16:26;;;;;;;1999.90;999.90;;;10.10;99.90;;;;;;5049142;28;20450;-66
2022/11/28 11:18:54;;;;;;;1999.90;999.90;;;10.30;99.90;;;;;;5048891;28;21211;-69
2022/11/28 11:21:23;;;;;;;1999.90;999.90;;;10.40;99.90;;;;;;5048854;28;20469;-67
2022/11/28 11:24:10;;;;;;;1999.90;999.90;;;10.50;99.90;;;;;;5049080;28;20530;-67
2022/11/28 11:26:40;;;;;;;1999.90;999.90;;;10.50;99.90;;;;;;5049273;28;20451;-70
2022/11/28 11:29:21;;;;;;;1999.90;999.90;;;10.60;99.90;;;;;;5048896;28;20442;-66
2022/11/28 11:31:52;;;;;;;1999.90;999.90;;;10.60;99.90;;;;;;5048905;28;20459;-66
2022/11/28 11:34:21;;;;;;;1999.90;999.90;;;10.60;99.90;;;;;;5049115;28;20455;-66
2022/11/28 11:36:49;;;;;;;1999.90;999.90;;;10.40;99.90;;;;;;5048549;28;20544;-67
2022/11/28 11:39:20;;;;;;;1999.90;999.90;;;10.30;99.90;;;;;;5048241;28;20480;-66
2022/11/28 11:41:49;;;;;;;1999.90;999.90;;;10.30;99.90;;;;;;5048710;28;20448;-66
2022/11/28 11:44:30;;;;;;;1999.90;999.90;;;10.20;99.90;;;;;;5048626;28;20448;-66
2022/11/28 11:46:59;;;;;;;1999.90;999.90;;;10.10;99.90;;;;;;5048773;28;20956;-66
2022/11/28 11:49:31;;;;;;;1999.90;999.90;;;10.00;99.90;;;;;;5048509;28;20478;-68
2022/11/28 11:52:00;;;;;;;1999.90;999.90;;;10.00;99.90;;;;;;5048541;28;20945;-68
2022/11/28 11:54:27;;;;;;;1999.90;999.90;;;10.10;99.90;;;;;;5048807;28;20455;-68
2022/11/28 11:56:55;;;;;;;1999.90;999.90;;;9.80;99.90;;;;;;5048303;28;20446;-68
2022/11/28 11:59:26;;;;;;;1999.90;999.90;;;9.70;99.90;;;;;;5047343;28;21020;-69
2022/11/28 12:02:00;;;;;;;1999.90;999.90;;;9.60;99.90;;;;;;5046992;28;20444;-68
2022/11/28 12:04:32;;;;;;;1999.90;999.90;;;9.40;99.90;;;;;;5045313;28;20448;-68
2022/11/28 12:07:02;;;;;;;1999.90;999.90;;;9.30;99.90;;;;;;5047058;28;20447;-65
2022/11/28 12:09:34;;;;;;;1999.90;999.90;;;9.40;99.90;;;;;;5035958;28;20433;-65
2022/11/28 12:12:09;;;;;;;1999.90;999.90;;;9.40;99.90;;;;;;5028338;28;20448;-66
2022/11/28 12:14:38;;;;;;;1999.90;999.90;;;9.40;99.90;;;;;;5028072;28;20966;-66
2022/11/28 12:17:24;;;;;;;1999.90;999.90;;;9.50;99.90;;;;;;5028201;28;20488;-67
2022/11/28 12:20:01;;;;;;;1999.90;999.90;;;9.50;99.90;;;;;;5027350;28;20491;-66
2022/11/28 12:22:38;;;;;;;1999.90;999.90;;;9.40;99.90;;;;;;5028411;28;20453;-66